sensor_id;sensor_type;location;lat;lon;timestamp;P1;durP1;ratioP1;P2;durP2;ratioP2
14153;SDS011;7157;53.144;7.570;2022-12-18T00:05:20;24.58;;;9.02;;
14153;SDS011;7157;53.144;7.570;2022-12-18T00:15:23;18.98;;;10.00;;
14153;SDS011;7157;53.144;7.570;2022-12-18T00:25:27;28.00;;;10.55;;
14153;SDS011;7157;53.144;7.570;2022-12-18T00:35:30;17.48;;;9.43;;
14153;SDS011;7157;53.144;7.570;2022-12-18T00:45:35;19.05;;;10.10;;
14153;SDS011;7157;53.144;7.570;2022-12-18T00:55:38;38.30;;;14.35;;
14153;SDS011;7157;53.144;7.570;2022-12-18T01:05:43;33.08;;;12.07;;
14153;SDS011;7157;53.144;7.570;2022-12-18T01:15:47;31.00;;;10.88;;
14153;SDS011;7157;53.144;7.570;2022-12-18T01:25:52;24.02;;;10.30;;
14153;SDS011;7157;53.144;7.570;2022-12-18T01:35:55;21.05;;;10.70;;
14153;SDS011;7157;53.144;7.570;2022-12-18T01:46:00;16.08;;;8.02;;
14153;SDS011;7157;53.144;7.570;2022-12-18T01:56:03;17.00;;;8.65;;
14153;SDS011;7157;53.144;7.570;2022-12-18T02:06:09;11.38;;;6.05;;
14153;SDS011;7157;53.144;7.570;2022-12-18T02:16:18;13.85;;;7.18;;
14153;SDS011;7157;53.144;7.570;2022-12-18T02:26:28;21.55;;;10.70;;
14153;SDS011;7157;53.144;7.570;2022-12-18T02:36:36;14.03;;;6.60;;
14153;SDS011;7157;53.144;7.570;2022-12-18T02:46:44;17.30;;;7.03;;
14153;SDS011;7157;53.144;7.570;2022-12-18T02:56:51;15.68;;;6.72;;
14153;SDS011;7157;53.144;7.570;2022-12-18T03:06:59;12.57;;;7.53;;
14153;SDS011;7157;53.144;7.570;2022-12-18T03:17:07;5.57;;;3.35;;
14153;SDS011;7157;53.144;7.570;2022-12-18T03:27:18;10.85;;;6.18;;
14153;SDS011;7157;53.144;7.570;2022-12-18T03:37:23;6.13;;;5.53;;
14153;SDS011;7157;53.144;7.570;2022-12-18T03:47:28;9.32;;;3.92;;
14153;SDS011;7157;53.144;7.570;2022-12-18T03:57:35;15.50;;;7.77;;
14153;SDS011;7157;53.144;7.570;2022-12-18T04:07:41;6.80;;;6.03;;
14153;SDS011;7157;53.144;7.570;2022-12-18T04:17:46;16.60;;;8.52;;
14153;SDS011;7157;53.144;7.570;2022-12-18T04:27:52;16.27;;;5.85;;
14153;SDS011;7157;53.144;7.570;2022-12-18T04:37:55;8.10;;;5.20;;
14153;SDS011;7157;53.144;7.570;2022-12-18T04:47:59;12.65;;;5.25;;
14153;SDS011;7157;53.144;7.570;2022-12-18T04:58:02;4.03;;;2.70;;
14153;SDS011;7157;53.144;7.570;2022-12-18T05:08:06;3.13;;;2.25;;
14153;SDS011;7157;53.144;7.570;2022-12-18T05:18:11;7.70;;;4.15;;
14153;SDS011;7157;53.144;7.570;2022-12-18T05:28:15;7.05;;;4.13;;
14153;SDS011;7157;53.144;7.570;2022-12-18T05:38:17;8.23;;;2.95;;
14153;SDS011;7157;53.144;7.570;2022-12-18T05:48:22;6.38;;;2.95;;
14153;SDS011;7157;53.144;7.570;2022-12-18T05:58:25;8.65;;;3.47;;
14153;SDS011;7157;53.144;7.570;2022-12-18T06:08:30;6.40;;;5.65;;
14153;SDS011;7157;53.144;7.570;2022-12-18T06:18:33;2.72;;;1.75;;
14153;SDS011;7157;53.144;7.570;2022-12-18T06:28:38;5.50;;;2.40;;
14153;SDS011;7157;53.144;7.570;2022-12-18T06:38:42;8.27;;;3.35;;
14153;SDS011;7157;53.144;7.570;2022-12-18T06:48:48;1.98;;;1.73;;
14153;SDS011;7157;53.144;7.570;2022-12-18T06:58:51;7.45;;;4.43;;
14153;SDS011;7157;53.144;7.570;2022-12-18T07:08:56;3.85;;;2.42;;
14153;SDS011;7157;53.144;7.570;2022-12-18T07:18:58;5.95;;;3.72;;
14153;SDS011;7157;53.144;7.570;2022-12-18T07:29:02;3.78;;;2.95;;
14153;SDS011;7157;53.144;7.570;2022-12-18T07:39:05;8.65;;;4.70;;
14153;SDS011;7157;53.144;7.570;2022-12-18T07:49:09;5.45;;;3.08;;
14153;SDS011;7157;53.144;7.570;2022-12-18T07:59:12;4.97;;;2.67;;
14153;SDS011;7157;53.144;7.570;2022-12-18T08:09:17;3.35;;;2.00;;
14153;SDS011;7157;53.144;7.570;2022-12-18T08:19:19;2.85;;;2.33;;
14153;SDS011;7157;53.144;7.570;2022-12-18T08:29:24;5.03;;;2.13;;
14153;SDS011;7157;53.144;7.570;2022-12-18T08:39:26;7.65;;;3.13;;
14153;SDS011;7157;53.144;7.570;2022-12-18T08:49:31;2.75;;;1.90;;
14153;SDS011;7157;53.144;7.570;2022-12-18T08:59:33;3.72;;;2.67;;
14153;SDS011;7157;53.144;7.570;2022-12-18T09:09:38;4.28;;;2.30;;
14153;SDS011;7157;53.144;7.570;2022-12-18T09:19:40;4.07;;;2.78;;
14153;SDS011;7157;53.144;7.570;2022-12-18T09:29:45;5.60;;;2.88;;
14153;SDS011;7157;53.144;7.570;2022-12-18T09:39:48;5.32;;;3.15;;
14153;SDS011;7157;53.144;7.570;2022-12-18T09:49:53;5.07;;;3.30;;
14153;SDS011;7157;53.144;7.570;2022-12-18T10:00:02;7.15;;;4.00;;
14153;SDS011;7157;53.144;7.570;2022-12-18T10:10:13;8.30;;;4.28;;
14153;SDS011;7157;53.144;7.570;2022-12-18T10:20:25;5.90;;;3.47;;
14153;SDS011;7157;53.144;7.570;2022-12-18T10:30:38;6.18;;;4.05;;
14153;SDS011;7157;53.144;7.570;2022-12-18T10:40:47;5.72;;;3.75;;
14153;SDS011;7157;53.144;7.570;2022-12-18T10:50:54;11.40;;;4.35;;
14153;SDS011;7157;53.144;7.570;2022-12-18T11:01:14;6.53;;;4.60;;
14153;SDS011;7157;53.144;7.570;2022-12-18T11:11:21;8.25;;;4.07;;
14153;SDS011;7157;53.144;7.570;2022-12-18T11:21:24;7.05;;;4.15;;
14153;SDS011;7157;53.144;7.570;2022-12-18T11:31:29;8.93;;;3.83;;
14153;SDS011;7157;53.144;7.570;2022-12-18T11:41:34;7.57;;;3.72;;
14153;SDS011;7157;53.144;7.570;2022-12-18T11:52:04;8.45;;;4.32;;
14153;SDS011;7157;53.144;7.570;2022-12-18T12:02:26;8.82;;;4.25;;
14153;SDS011;7157;53.144;7.570;2022-12-18T12:12:43;9.18;;;4.30;;
14153;SDS011;7157;53.144;7.570;2022-12-18T12:23:01;4.07;;;2.83;;
14153;SDS011;7157;53.144;7.570;2022-12-18T12:33:20;5.57;;;3.47;;
14153;SDS011;7157;53.144;7.570;2022-12-18T12:43:33;5.50;;;3.58;;
14153;SDS011;7157;53.144;7.570;2022-12-18T12:53:51;5.22;;;3.35;;
14153;SDS011;7157;53.144;7.570;2022-12-18T13:04:00;9.13;;;4.15;;
14153;SDS011;7157;53.144;7.570;2022-12-18T13:14:20;12.55;;;6.85;;
14153;SDS011;7157;53.144;7.570;2022-12-18T13:24:27;9.55;;;6.07;;
14153;SDS011;7157;53.144;7.570;2022-12-18T13:34:35;9.43;;;4.63;;
14153;SDS011;7157;53.144;7.570;2022-12-18T13:44:39;8.23;;;4.93;;
14153;SDS011;7157;53.144;7.570;2022-12-18T13:54:45;9.95;;;5.43;;
14153;SDS011;7157;53.144;7.570;2022-12-18T14:04:52;7.10;;;3.85;;
14153;SDS011;7157;53.144;7.570;2022-12-18T14:14:58;8.75;;;3.97;;
14153;SDS011;7157;53.144;7.570;2022-12-18T14:25:06;8.52;;;4.05;;
14153;SDS011;7157;53.144;7.570;2022-12-18T14:35:18;6.18;;;3.40;;
14153;SDS011;7157;53.144;7.570;2022-12-18T14:45:34;4.55;;;2.95;;
14153;SDS011;7157;53.144;7.570;2022-12-18T14:55:45;4.90;;;3.25;;
14153;SDS011;7157;53.144;7.570;2022-12-18T15:05:49;11.13;;;3.83;;
14153;SDS011;7157;53.144;7.570;2022-12-18T15:15:53;8.38;;;4.40;;
14153;SDS011;7157;53.144;7.570;2022-12-18T15:25:58;6.72;;;4.43;;
14153;SDS011;7157;53.144;7.570;2022-12-18T15:36:05;4.72;;;2.17;;
14153;SDS011;7157;53.144;7.570;2022-12-18T15:46:12;1.80;;;1.38;;
14153;SDS011;7157;53.144;7.570;2022-12-18T15:56:17;7.00;;;2.10;;
14153;SDS011;7157;53.144;7.570;2022-12-18T16:06:38;27.52;;;4.80;;
14153;SDS011;7157;53.144;7.570;2022-12-18T16:17:02;3.40;;;2.08;;
14153;SDS011;7157;53.144;7.570;2022-12-18T16:27:07;6.13;;;2.88;;
14153;SDS011;7157;53.144;7.570;2022-12-18T16:37:12;3.90;;;2.05;;
14153;SDS011;7157;53.144;7.570;2022-12-18T16:47:16;2.83;;;1.65;;
14153;SDS011;7157;53.144;7.570;2022-12-18T16:57:21;5.05;;;2.42;;
14153;SDS011;7157;53.144;7.570;2022-12-18T17:07:26;3.25;;;1.98;;
14153;SDS011;7157;53.144;7.570;2022-12-18T17:17:30;4.05;;;2.00;;
14153;SDS011;7157;53.144;7.570;2022-12-18T17:27:33;3.45;;;1.83;;
14153;SDS011;7157;53.144;7.570;2022-12-18T17:37:37;8.60;;;3.17;;
14153;SDS011;7157;53.144;7.570;2022-12-18T17:47:40;6.70;;;2.08;;
14153;SDS011;7157;53.144;7.570;2022-12-18T17:57:44;7.93;;;2.60;;
14153;SDS011;7157;53.144;7.570;2022-12-18T18:07:48;4.25;;;1.83;;
14153;SDS011;7157;53.144;7.570;2022-12-18T18:17:54;8.65;;;2.92;;
14153;SDS011;7157;53.144;7.570;2022-12-18T18:27:56;4.18;;;3.03;;
14153;SDS011;7157;53.144;7.570;2022-12-18T18:38:01;4.70;;;2.42;;
14153;SDS011;7157;53.144;7.570;2022-12-18T18:48:04;5.90;;;2.92;;
14153;SDS011;7157;53.144;7.570;2022-12-18T18:58:09;5.03;;;3.08;;
14153;SDS011;7157;53.144;7.570;2022-12-18T19:08:12;8.15;;;4.03;;
14153;SDS011;7157;53.144;7.570;2022-12-18T19:18:16;5.75;;;3.50;;
14153;SDS011;7157;53.144;7.570;2022-12-18T19:28:21;4.25;;;1.80;;
14153;SDS011;7157;53.144;7.570;2022-12-18T19:38:27;6.22;;;3.00;;
14153;SDS011;7157;53.144;7.570;2022-12-18T19:48:31;10.25;;;3.10;;
14153;SDS011;7157;53.144;7.570;2022-12-18T19:58:36;7.78;;;3.55;;
14153;SDS011;7157;53.144;7.570;2022-12-18T20:08:39;11.10;;;3.40;;
14153;SDS011;7157;53.144;7.570;2022-12-18T20:18:44;6.35;;;3.03;;
14153;SDS011;7157;53.144;7.570;2022-12-18T20:28:48;4.95;;;3.05;;
14153;SDS011;7157;53.144;7.570;2022-12-18T20:38:52;6.22;;;3.80;;
14153;SDS011;7157;53.144;7.570;2022-12-18T20:49:00;4.15;;;2.42;;
14153;SDS011;7157;53.144;7.570;2022-12-18T20:59:05;3.60;;;2.03;;
14153;SDS011;7157;53.144;7.570;2022-12-18T21:09:07;7.03;;;4.20;;
14153;SDS011;7157;53.144;7.570;2022-12-18T21:19:12;8.43;;;4.95;;
14153;SDS011;7157;53.144;7.570;2022-12-18T21:29:18;4.75;;;3.00;;
14153;SDS011;7157;53.144;7.570;2022-12-18T21:39:24;7.38;;;3.42;;
14153;SDS011;7157;53.144;7.570;2022-12-18T21:49:28;7.03;;;3.10;;
14153;SDS011;7157;53.144;7.570;2022-12-18T21:59:34;8.63;;;4.25;;
14153;SDS011;7157;53.144;7.570;2022-12-18T22:09:38;8.80;;;4.57;;
14153;SDS011;7157;53.144;7.570;2022-12-18T22:19:43;5.50;;;3.47;;
14153;SDS011;7157;53.144;7.570;2022-12-18T22:29:45;10.35;;;4.80;;
14153;SDS011;7157;53.144;7.570;2022-12-18T22:40:09;7.95;;;4.78;;
14153;SDS011;7157;53.144;7.570;2022-12-18T22:50:25;12.32;;;4.88;;
14153;SDS011;7157;53.144;7.570;2022-12-18T23:00:29;11.18;;;5.43;;
14153;SDS011;7157;53.144;7.570;2022-12-18T23:10:35;6.15;;;3.58;;
14153;SDS011;7157;53.144;7.570;2022-12-18T23:20:39;7.80;;;4.45;;
14153;SDS011;7157;53.144;7.570;2022-12-18T23:30:43;10.70;;;5.43;;
14153;SDS011;7157;53.144;7.570;2022-12-18T23:40:47;10.75;;;5.07;;
14153;SDS011;7157;53.144;7.570;2022-12-18T23:50:53;8.75;;;5.15;;
